createdAt,value
2018-09-29T00:02:00.274Z,7.10
2018-09-29T00:04:29.002Z,7.10
2018-09-29T00:06:57.894Z,7.10
2018-09-29T00:09:26.603Z,7.10
2018-09-29T00:11:55.309Z,7.10
2018-09-29T00:14:24.012Z,7.10
2018-09-29T00:16:52.726Z,7.10
2018-09-29T00:19:21.429Z,7.10
2018-09-29T00:21:50.150Z,7.00
2018-09-29T00:24:18.834Z,7.00
2018-09-29T00:26:47.549Z,7.00
2018-09-29T00:29:16.247Z,6.90
2018-09-29T00:31:44.946Z,6.90
2018-09-29T00:34:13.669Z,6.80
2018-09-29T00:36:42.388Z,6.80
2018-09-29T00:39:11.089Z,6.80
2018-09-29T00:41:39.803Z,6.80
2018-09-29T00:44:08.910Z,6.70
2018-09-29T00:46:37.611Z,6.70
2018-09-29T00:49:06.327Z,6.60
2018-09-29T00:51:35.022Z,6.60
2018-09-29T00:54:10.274Z,6.40
2018-09-29T00:56:38.958Z,6.30
2018-09-29T00:59:07.671Z,6.30
2018-09-29T01:01:36.390Z,6.20
2018-09-29T01:04:05.093Z,6.20
2018-09-29T01:06:33.802Z,6.30
2018-09-29T01:09:02.504Z,6.30
2018-09-29T01:11:31.202Z,6.30
2018-09-29T01:13:59.909Z,6.30
2018-09-29T01:16:28.605Z,6.30
2018-09-29T01:18:57.319Z,6.40
2018-09-29T01:21:26.017Z,6.40
2018-09-29T01:23:54.726Z,6.30
2018-09-29T01:26:23.423Z,6.30
2018-09-29T01:28:52.146Z,6.10
2018-09-29T01:31:20.834Z,5.90
2018-09-29T01:33:49.637Z,5.90
2018-09-29T01:36:18.366Z,5.90
2018-09-29T01:38:47.088Z,5.90
2018-09-29T01:41:15.789Z,5.90
2018-09-29T01:43:44.513Z,5.90
2018-09-29T01:46:19.951Z,5.90
2018-09-29T01:48:48.678Z,5.90
2018-09-29T01:51:18.460Z,5.90
2018-09-29T01:53:47.185Z,5.90
2018-09-29T01:56:15.893Z,5.90
2018-09-29T01:58:44.607Z,5.90
2018-09-29T02:01:13.334Z,5.80
2018-09-29T02:03:42.050Z,5.80
2018-09-29T02:06:10.776Z,5.90
2018-09-29T02:08:39.482Z,5.80
2018-09-29T02:11:08.189Z,5.70
2018-09-29T02:13:36.898Z,5.70
2018-09-29T02:16:11.365Z,5.70
2018-09-29T02:18:40.262Z,5.60
2018-09-29T02:21:08.982Z,5.60
2018-09-29T02:23:37.737Z,5.50
2018-09-29T02:26:06.798Z,5.50
2018-09-29T02:28:35.511Z,5.40
2018-09-29T02:31:04.230Z,5.20
2018-09-29T02:33:32.958Z,5.20
2018-09-29T02:36:01.670Z,5.20
2018-09-29T02:38:30.387Z,5.30
2018-09-29T02:40:59.106Z,5.30
2018-09-29T02:43:44.374Z,5.30
2018-09-29T02:46:13.099Z,5.30
2018-09-29T02:48:41.802Z,5.30
2018-09-29T02:51:10.541Z,5.30
2018-09-29T02:53:39.270Z,5.30
2018-09-29T02:56:08.000Z,5.30
2018-09-29T02:58:36.707Z,5.30
2018-09-29T03:01:05.430Z,5.30
2018-09-29T03:03:34.117Z,5.30
2018-09-29T03:06:02.828Z,5.20
2018-09-29T03:08:31.670Z,5.20
2018-09-29T03:11:00.399Z,5.20
2018-09-29T03:13:29.085Z,5.20
2018-09-29T03:15:57.817Z,5.20
2018-09-29T03:18:26.531Z,5.20
2018-09-29T03:20:55.263Z,5.10
2018-09-29T03:23:23.967Z,5.10
2018-09-29T03:25:52.683Z,5.10
2018-09-29T03:28:21.395Z,5.10
2018-09-29T03:30:50.278Z,5.00
2018-09-29T03:33:19.002Z,5.00
2018-09-29T03:35:47.725Z,5.00
2018-09-29T03:38:16.602Z,5.00
2018-09-29T03:40:45.309Z,4.90
2018-09-29T03:43:14.063Z,4.90
2018-09-29T03:45:42.774Z,4.80
2018-09-29T03:48:11.481Z,4.80
2018-09-29T03:50:40.170Z,4.80
2018-09-29T03:53:08.911Z,4.80
2018-09-29T03:55:40.767Z,4.80
2018-09-29T03:58:09.487Z,4.80
2018-09-29T04:00:38.202Z,4.80
2018-09-29T04:03:06.909Z,4.80
2018-09-29T04:05:35.610Z,4.70
2018-09-29T04:08:04.354Z,4.70
2018-09-29T04:10:33.062Z,4.60
2018-09-29T04:13:01.790Z,4.60
2018-09-29T04:15:30.518Z,4.60
2018-09-29T04:17:59.237Z,4.60
2018-09-29T04:20:27.952Z,4.60
2018-09-29T04:22:56.678Z,4.70
2018-09-29T04:25:25.386Z,4.70
2018-09-29T04:27:54.132Z,4.70
2018-09-29T04:30:22.835Z,4.60
2018-09-29T04:32:51.549Z,4.60
2018-09-29T04:35:20.258Z,4.60
2018-09-29T04:37:48.981Z,4.60
2018-09-29T04:40:17.706Z,4.60
2018-09-29T04:43:09.628Z,4.60
2018-09-29T04:45:38.273Z,4.60
2018-09-29T04:48:07.119Z,4.60
2018-09-29T04:50:35.819Z,4.60
2018-09-29T04:53:04.562Z,4.60
2018-09-29T04:55:33.282Z,4.60
2018-09-29T04:58:02.001Z,4.50
2018-09-29T05:00:30.745Z,4.50
2018-09-29T05:02:59.474Z,4.50
2018-09-29T05:05:28.184Z,4.50
2018-09-29T05:07:56.902Z,4.50
2018-09-29T05:10:25.609Z,4.50
2018-09-29T05:12:54.317Z,4.40
2018-09-29T05:15:23.033Z,4.40
2018-09-29T05:17:51.729Z,4.40
2018-09-29T05:20:20.446Z,4.40
2018-09-29T05:22:49.141Z,4.40
2018-09-29T05:25:17.850Z,4.40
2018-09-29T05:27:46.533Z,4.40
2018-09-29T05:30:15.250Z,4.40
2018-09-29T05:32:43.962Z,4.40
2018-09-29T05:35:12.695Z,4.40
2018-09-29T05:37:41.414Z,4.40
2018-09-29T05:40:10.122Z,4.40
2018-09-29T05:42:38.834Z,4.40
2018-09-29T05:45:07.557Z,4.40
2018-09-29T05:47:49.730Z,4.40
2018-09-29T05:50:18.461Z,4.40
2018-09-29T05:52:51.210Z,4.40
2018-09-29T05:55:19.909Z,4.50
2018-09-29T05:57:48.701Z,4.50
2018-09-29T06:00:17.485Z,4.60
2018-09-29T06:02:53.765Z,4.60
2018-09-29T06:05:22.491Z,4.60
2018-09-29T06:07:51.183Z,4.60
2018-09-29T06:10:19.890Z,4.60
2018-09-29T06:18:44.601Z,4.70
2018-09-29T06:21:21.018Z,4.70
2018-09-29T06:23:49.894Z,4.70
2018-09-29T06:26:18.645Z,4.80
2018-09-29T06:28:47.346Z,4.80
2018-09-29T06:31:16.049Z,4.80
2018-09-29T06:33:45.908Z,4.90
2018-09-29T06:36:14.673Z,4.90
2018-09-29T06:44:46.081Z,5.00
2018-09-29T06:50:11.357Z,5.10
2018-09-29T06:52:40.373Z,5.10
2018-09-29T06:55:09.068Z,5.00
2018-09-29T06:57:37.887Z,5.00
2018-09-29T07:00:06.686Z,5.00
2018-09-29T07:02:46.362Z,5.10
2018-09-29T07:05:20.964Z,5.10
2018-09-29T07:07:49.679Z,5.30
2018-09-29T07:10:18.396Z,5.40
2018-09-29T07:12:47.125Z,5.40
2018-09-29T07:15:15.819Z,5.50
2018-09-29T07:17:44.511Z,5.60
2018-09-29T07:20:13.255Z,5.70
2018-09-29T07:22:48.541Z,5.70
2018-09-29T07:25:17.299Z,5.80
2018-09-29T07:27:45.953Z,5.90
2018-09-29T07:30:14.727Z,5.90
2018-09-29T07:32:43.426Z,6.00
2018-09-29T07:38:03.161Z,6.00
2018-09-29T07:40:32.059Z,6.00
2018-09-29T07:43:00.779Z,6.00
2018-09-29T07:45:29.487Z,6.10
2018-09-29T07:47:58.186Z,6.20
2018-09-29T07:50:26.911Z,6.20
2018-09-29T07:52:55.606Z,6.30
2018-09-29T07:55:24.318Z,6.40
2018-09-29T07:57:53.026Z,6.50
2018-09-29T08:00:21.718Z,6.60
2018-09-29T08:02:50.421Z,6.70
2018-09-29T08:05:19.125Z,6.80
2018-09-29T08:08:10.226Z,6.90
2018-09-29T08:10:40.458Z,7.00
2018-09-29T08:13:09.141Z,7.10
2018-09-29T08:15:37.854Z,7.20
2018-09-29T08:18:06.573Z,7.30
2018-09-29T08:20:35.277Z,7.40
2018-09-29T08:23:03.965Z,7.40
2018-09-29T08:25:32.716Z,7.60
2018-09-29T08:28:01.413Z,7.70
2018-09-29T08:30:30.126Z,7.80
2018-09-29T08:32:58.821Z,7.90
2018-09-29T08:35:44.233Z,7.90
2018-09-29T08:38:12.955Z,8.00
2018-09-29T08:40:41.663Z,8.10
2018-09-29T08:43:10.424Z,8.20
2018-09-29T08:45:39.114Z,8.30
2018-09-29T08:48:21.391Z,8.50
2018-09-29T08:50:50.164Z,8.60
2018-09-29T08:53:18.895Z,8.70
2018-09-29T08:55:47.584Z,8.80
2018-09-29T08:58:16.322Z,8.90
2018-09-29T09:00:45.032Z,9.00
2018-09-29T09:03:13.742Z,9.20
2018-09-29T09:05:42.451Z,9.20
2018-09-29T09:08:11.157Z,9.40
2018-09-29T09:10:39.874Z,9.50
2018-09-29T09:13:08.581Z,9.70
2018-09-29T09:15:37.282Z,9.90
2018-09-29T09:18:05.999Z,10.00
2018-09-29T09:20:34.715Z,10.10
2018-09-29T09:23:03.547Z,10.20
2018-09-29T09:28:25.334Z,10.40
2018-09-29T09:30:54.030Z,10.70
2018-09-29T09:33:22.768Z,10.80
2018-09-29T09:35:51.473Z,10.80
2018-09-29T09:38:20.178Z,10.90
2018-09-29T09:40:53.857Z,10.90
2018-09-29T09:43:22.587Z,11.00
2018-09-29T09:45:51.285Z,11.10
2018-09-29T09:48:20.010Z,11.10
2018-09-29T09:50:48.714Z,11.30
2018-09-29T09:53:17.443Z,11.40
2018-09-29T09:55:46.154Z,11.50
2018-09-29T09:58:14.873Z,11.50
2018-09-29T10:00:52.874Z,11.60
2018-09-29T10:03:27.862Z,11.60
2018-09-29T10:05:56.826Z,11.70
2018-09-29T10:08:25.559Z,11.70
2018-09-29T10:10:54.448Z,11.80
2018-09-29T10:13:23.427Z,11.90
2018-09-29T10:15:52.280Z,12.00
2018-09-29T10:18:21.123Z,12.00
2018-09-29T10:23:40.881Z,12.20
2018-09-29T10:26:09.594Z,12.30
2018-09-29T10:28:38.425Z,12.30
2018-09-29T10:31:07.166Z,12.40
2018-09-29T10:33:35.882Z,12.40
2018-09-29T10:36:04.602Z,12.50
2018-09-29T10:38:33.334Z,12.50
2018-09-29T10:41:02.067Z,12.60
2018-09-29T10:43:30.790Z,12.70
2018-09-29T10:45:59.493Z,12.70
2018-09-29T10:48:28.211Z,12.60
2018-09-29T10:50:56.930Z,12.70
2018-09-29T10:53:25.633Z,12.70
2018-09-29T10:55:54.338Z,12.80
2018-09-29T10:58:23.077Z,12.90
2018-09-29T11:00:51.801Z,13.00
2018-09-29T11:03:20.521Z,13.10
2018-09-29T11:05:49.246Z,13.10
2018-09-29T11:08:17.973Z,13.10
2018-09-29T11:10:46.700Z,13.10
2018-09-29T11:13:15.439Z,13.30
2018-09-29T11:15:44.187Z,13.30
2018-09-29T11:18:12.893Z,13.30
2018-09-29T11:23:34.749Z,13.40
2018-09-29T11:29:18.021Z,13.40
2018-09-29T11:31:46.734Z,13.40
2018-09-29T11:37:07.738Z,13.60
2018-09-29T11:39:36.442Z,13.70
2018-09-29T11:42:05.141Z,13.80
2018-09-29T11:44:33.904Z,13.90
2018-09-29T11:47:16.060Z,13.90
2018-09-29T11:49:44.786Z,14.00
2018-09-29T11:52:13.485Z,14.10
2018-09-29T11:54:42.189Z,14.20
2018-09-29T11:57:10.926Z,14.30
2018-09-29T11:59:39.645Z,14.40
2018-09-29T12:02:08.431Z,14.40
2018-09-29T12:04:37.115Z,14.30
2018-09-29T12:07:06.116Z,14.40
2018-09-29T12:09:34.828Z,14.50
2018-09-29T12:29:26.744Z,15.10
2018-09-29T12:31:55.470Z,15.10
2018-09-29T12:34:24.191Z,15.10
2018-09-29T12:36:52.960Z,15.20
2018-09-29T12:39:21.626Z,15.20
2018-09-29T12:41:50.321Z,15.30
2018-09-29T12:44:19.123Z,15.40
2018-09-29T12:46:47.778Z,15.40
2018-09-29T12:49:16.494Z,15.40
2018-09-29T12:51:45.227Z,15.40
2018-09-29T12:54:13.915Z,15.40
2018-09-29T12:56:42.626Z,15.50
2018-09-29T12:59:11.347Z,15.60
2018-09-29T13:01:40.059Z,15.70
2018-09-29T13:04:23.400Z,15.70
2018-09-29T13:06:52.108Z,15.80
2018-09-29T13:09:20.834Z,15.80
2018-09-29T13:11:49.563Z,15.80
2018-09-29T13:14:18.266Z,15.80
2018-09-29T13:16:47.033Z,15.80
2018-09-29T13:19:15.714Z,15.80
2018-09-29T13:21:44.414Z,15.80
2018-09-29T13:24:13.125Z,15.80
2018-09-29T13:26:41.833Z,15.80
2018-09-29T13:29:10.542Z,15.80
2018-09-29T13:34:45.199Z,15.70
2018-09-29T13:37:13.957Z,15.70
2018-09-29T13:39:54.289Z,15.60
2018-09-29T13:42:22.994Z,15.60
2018-09-29T13:44:51.738Z,15.60
2018-09-29T13:47:20.445Z,15.60
2018-09-29T13:49:49.158Z,15.50
2018-09-29T13:52:17.887Z,15.60
2018-09-29T13:54:46.618Z,15.60
2018-09-29T13:57:15.317Z,15.60
2018-09-29T13:59:44.022Z,15.50
2018-09-29T14:13:43.100Z,15.40
2018-09-29T14:16:11.826Z,15.40
2018-09-29T14:18:40.558Z,15.30
2018-09-29T14:21:10.390Z,15.30
2018-09-29T14:23:39.098Z,15.30
2018-09-29T14:26:07.851Z,15.30
2018-09-29T14:28:36.579Z,15.30
2018-09-29T14:31:05.393Z,15.30
2018-09-29T14:33:34.114Z,15.30
2018-09-29T14:36:02.830Z,15.30
2018-09-29T14:38:31.525Z,15.20
2018-09-29T14:41:17.866Z,15.30
2018-09-29T14:43:46.590Z,15.30
2018-09-29T14:46:15.353Z,15.30
2018-09-29T14:48:44.025Z,15.30
2018-09-29T14:51:12.749Z,15.30
2018-09-29T14:53:41.457Z,15.20
2018-09-29T14:56:10.190Z,15.20
2018-09-29T14:58:38.908Z,15.20
2018-09-29T15:01:07.634Z,15.20
2018-09-29T15:03:36.341Z,15.20
2018-09-29T15:08:59.438Z,15.20
2018-09-29T15:11:28.150Z,15.20
2018-09-29T15:13:56.862Z,15.20
2018-09-29T15:16:25.595Z,15.20
2018-09-29T15:21:46.598Z,15.10
2018-09-29T15:24:15.306Z,15.10
2018-09-29T15:27:04.041Z,15.20
2018-09-29T15:29:32.752Z,15.10
2018-09-29T15:32:01.536Z,15.10
2018-09-29T15:34:32.317Z,15.10
2018-09-29T15:37:01.101Z,15.10
2018-09-29T15:39:29.744Z,15.10
2018-09-29T15:41:58.446Z,15.10
2018-09-29T15:44:27.155Z,15.00
2018-09-29T15:46:55.865Z,15.00
2018-09-29T15:49:24.584Z,15.00
2018-09-29T15:51:53.293Z,14.90
2018-09-29T15:54:22.022Z,14.90
2018-09-29T15:56:50.765Z,14.90
2018-09-29T15:59:19.474Z,14.90
2018-09-29T16:01:48.180Z,14.80
2018-09-29T16:07:07.954Z,14.70
2018-09-29T16:09:51.137Z,14.70
2018-09-29T16:12:19.841Z,14.70
2018-09-29T16:15:04.737Z,14.70
2018-09-29T16:17:33.441Z,14.60
2018-09-29T16:20:02.190Z,14.60
2018-09-29T16:22:30.947Z,14.60
2018-09-29T16:24:59.702Z,14.60
2018-09-29T16:27:28.485Z,14.50
2018-09-29T16:29:57.253Z,14.40
2018-09-29T16:32:26.040Z,14.40
2018-09-29T16:34:54.811Z,14.30
2018-09-29T16:40:15.130Z,14.30
2018-09-29T16:42:43.922Z,14.30
2018-09-29T16:45:12.726Z,14.20
2018-09-29T16:47:41.485Z,14.20
2018-09-29T16:50:10.309Z,14.10
2018-09-29T16:52:39.045Z,14.00
2018-09-29T16:55:12.998Z,13.90
2018-09-29T16:57:41.741Z,13.80
2018-09-29T17:00:10.490Z,13.70
2018-09-29T17:02:39.794Z,13.60
2018-09-29T17:05:08.974Z,13.50
2018-09-29T17:07:49.485Z,13.40
2018-09-29T17:10:18.218Z,13.30
2018-09-29T17:12:46.956Z,13.10
2018-09-29T17:15:15.711Z,13.00
2018-09-29T17:17:44.457Z,12.90
2018-09-29T17:20:13.456Z,12.80
2018-09-29T17:22:42.213Z,12.70
2018-09-29T17:25:11.194Z,12.60
2018-09-29T17:27:40.508Z,12.50
2018-09-29T17:30:09.490Z,12.40
2018-09-29T17:32:38.218Z,12.30
2018-09-29T17:35:07.009Z,12.30
2018-09-29T17:37:35.733Z,12.20
2018-09-29T17:40:04.538Z,12.10
2018-09-29T17:42:34.330Z,12.00
2018-09-29T17:45:03.098Z,12.00
2018-09-29T17:47:38.093Z,11.90
2018-09-29T17:50:08.211Z,11.90
2018-09-29T17:52:37.162Z,11.90
2018-09-29T17:55:05.869Z,11.80
2018-09-29T17:57:34.609Z,11.70
2018-09-29T18:00:06.633Z,11.70
2018-09-29T18:02:35.361Z,11.60
2018-09-29T18:05:04.131Z,11.60
2018-09-29T18:07:32.865Z,11.50
2018-09-29T18:10:01.650Z,11.40
2018-09-29T18:12:31.669Z,11.40
2018-09-29T18:15:00.397Z,11.30
2018-09-29T18:17:29.135Z,11.30
2018-09-29T18:19:57.877Z,11.20
2018-09-29T18:22:26.773Z,11.10
2018-09-29T18:25:05.425Z,11.10
2018-09-29T18:27:34.151Z,11.00
2018-09-29T18:30:02.884Z,11.00
2018-09-29T18:32:31.646Z,10.90
2018-09-29T18:35:00.382Z,10.80
2018-09-29T18:37:29.114Z,10.80
2018-09-29T18:39:57.866Z,10.70
2018-09-29T18:42:26.609Z,10.70
2018-09-29T18:45:02.062Z,10.70
2018-09-29T18:47:30.794Z,10.60
2018-09-29T18:49:59.650Z,10.60
2018-09-29T18:52:37.238Z,10.60
2018-09-29T18:55:05.994Z,10.50
2018-09-29T18:57:34.828Z,10.50
2018-09-29T19:00:03.667Z,10.40
2018-09-29T19:02:32.390Z,10.40
2018-09-29T19:05:01.133Z,10.30
2018-09-29T19:07:29.886Z,10.30
2018-09-29T19:12:49.795Z,10.20
2018-09-29T19:18:09.654Z,10.10
2018-09-29T19:20:38.398Z,10.00
2018-09-29T19:23:07.165Z,10.00
2018-09-29T19:25:35.888Z,10.00
2018-09-29T19:28:04.847Z,10.00
2018-09-29T19:30:35.051Z,9.90
2018-09-29T19:33:03.828Z,9.90
2018-09-29T19:35:32.757Z,9.90
2018-09-29T19:38:01.566Z,9.90
2018-09-29T19:40:30.662Z,9.90
2018-09-29T19:42:59.427Z,9.80
2018-09-29T19:45:28.233Z,9.80
2018-09-29T19:47:57.162Z,9.80
2018-09-29T19:50:25.946Z,9.70
2018-09-29T19:52:54.689Z,9.70
2018-09-29T19:55:23.502Z,9.60
2018-09-29T19:57:52.202Z,9.60
2018-09-29T20:00:20.943Z,9.60
2018-09-29T20:02:49.665Z,9.50
2018-09-29T20:05:18.403Z,9.50
2018-09-29T20:07:47.141Z,9.40
2018-09-29T20:10:15.947Z,9.40
2018-09-29T20:12:44.603Z,9.40
2018-09-29T20:15:13.333Z,9.40
2018-09-29T20:17:42.054Z,9.30
2018-09-29T20:20:10.815Z,9.30
2018-09-29T20:22:49.361Z,9.30
2018-09-29T20:25:18.090Z,9.30
2018-09-29T20:27:46.817Z,9.20
2018-09-29T20:30:15.550Z,9.20
2018-09-29T20:32:44.291Z,9.10
2018-09-29T20:35:13.014Z,9.10
2018-09-29T20:37:42.641Z,9.00
2018-09-29T20:40:11.762Z,9.00
2018-09-29T20:42:40.728Z,9.00
2018-09-29T20:45:09.420Z,9.00
2018-09-29T20:47:39.123Z,9.00
2018-09-29T20:50:07.838Z,8.90
2018-09-29T20:52:36.594Z,8.90
2018-09-29T20:55:05.498Z,8.90
2018-09-29T20:57:34.241Z,8.80
2018-09-29T21:00:02.999Z,8.80
2018-09-29T21:02:31.742Z,8.80
2018-09-29T21:05:00.637Z,8.70
2018-09-29T21:07:29.382Z,8.70
2018-09-29T21:09:58.126Z,8.70
2018-09-29T21:12:26.887Z,8.70
2018-09-29T21:14:55.617Z,8.60
2018-09-29T21:17:24.378Z,8.60
2018-09-29T21:19:53.209Z,8.60
2018-09-29T21:22:21.938Z,8.60
2018-09-29T21:24:50.665Z,8.60
2018-09-29T21:27:19.393Z,8.50
2018-09-29T21:29:48.123Z,8.40
2018-09-29T21:32:16.846Z,8.40
2018-09-29T21:34:45.597Z,8.40
2018-09-29T21:37:14.333Z,8.40
2018-09-29T21:39:43.061Z,8.40
2018-09-29T21:42:11.827Z,8.40
2018-09-29T21:50:35.391Z,8.30
2018-09-29T21:53:04.109Z,8.20
2018-09-29T21:55:32.854Z,8.20
2018-09-29T21:58:01.624Z,8.20
2018-09-29T22:00:35.622Z,8.20
2018-09-29T22:03:04.341Z,8.20
2018-09-29T22:05:33.068Z,8.10
2018-09-29T22:08:01.813Z,8.10
2018-09-29T22:10:30.530Z,8.10
2018-09-29T22:12:59.265Z,8.00
2018-09-29T22:18:02.243Z,8.00
2018-09-29T22:20:30.965Z,7.90
2018-09-29T22:22:59.702Z,7.90
2018-09-29T22:25:28.430Z,7.90
2018-09-29T22:27:57.167Z,7.90
2018-09-29T22:30:25.909Z,7.90
2018-09-29T22:32:54.649Z,7.80
2018-09-29T22:35:23.361Z,7.80
2018-09-29T22:37:52.127Z,7.70
2018-09-29T22:40:20.849Z,7.70
2018-09-29T22:42:49.581Z,7.70
2018-09-29T22:45:18.317Z,7.70
2018-09-29T22:47:47.070Z,7.70
2018-09-29T22:50:15.830Z,7.60
2018-09-29T22:52:44.553Z,7.60
2018-09-29T22:55:13.287Z,7.60
2018-09-29T22:57:42.018Z,7.60
2018-09-29T23:00:10.741Z,7.60
2018-09-29T23:02:39.465Z,7.60
2018-09-29T23:05:08.221Z,7.50
2018-09-29T23:07:36.949Z,7.40
2018-09-29T23:10:05.682Z,7.40
2018-09-29T23:12:34.405Z,7.40
2018-09-29T23:15:03.125Z,7.40
2018-09-29T23:17:31.854Z,7.40
2018-09-29T23:20:00.614Z,7.40
2018-09-29T23:22:29.377Z,7.30
2018-09-29T23:24:58.095Z,7.30
2018-09-29T23:27:26.825Z,7.30
2018-09-29T23:29:55.541Z,7.30
2018-09-29T23:32:24.262Z,7.30
2018-09-29T23:34:52.993Z,7.30
2018-09-29T23:37:21.706Z,7.30
2018-09-29T23:39:50.458Z,7.30
2018-09-29T23:42:19.173Z,7.30
2018-09-29T23:44:47.898Z,7.20
2018-09-29T23:47:16.621Z,7.20
2018-09-29T23:49:45.337Z,7.30
2018-09-29T23:52:14.065Z,7.20
2018-09-29T23:54:42.798Z,7.20
2018-09-29T23:57:11.534Z,7.20
2018-09-29T23:59:40.290Z,7.20
